sensor_id;sensor_type;location;lat;lon;timestamp;P1;durP1;ratioP1;P2;durP2;ratioP2
16766;SDS011;8501;49.926;8.404;2024-02-14T00:01:00;9.33;;;5.53;;
16766;SDS011;8501;49.926;8.404;2024-02-14T00:03:26;8.20;;;5.47;;
16766;SDS011;8501;49.926;8.404;2024-02-14T00:05:52;9.63;;;5.73;;
16766;SDS011;8501;49.926;8.404;2024-02-14T00:08:18;9.33;;;5.50;;
16766;SDS011;8501;49.926;8.404;2024-02-14T00:10:43;8.77;;;5.80;;
16766;SDS011;8501;49.926;8.404;2024-02-14T00:13:09;8.93;;;6.13;;
16766;SDS011;8501;49.926;8.404;2024-02-14T00:15:36;9.23;;;6.23;;
16766;SDS011;8501;49.926;8.404;2024-02-14T00:18:02;10.03;;;6.37;;
16766;SDS011;8501;49.926;8.404;2024-02-14T00:20:27;9.20;;;5.93;;
16766;SDS011;8501;49.926;8.404;2024-02-14T00:22:53;10.03;;;5.90;;
16766;SDS011;8501;49.926;8.404;2024-02-14T00:25:19;8.40;;;6.10;;
16766;SDS011;8501;49.926;8.404;2024-02-14T00:27:44;8.57;;;6.23;;
16766;SDS011;8501;49.926;8.404;2024-02-14T00:30:10;9.33;;;6.03;;
16766;SDS011;8501;49.926;8.404;2024-02-14T00:32:36;9.47;;;6.03;;
16766;SDS011;8501;49.926;8.404;2024-02-14T00:35:02;11.50;;;6.30;;
16766;SDS011;8501;49.926;8.404;2024-02-14T00:37:27;7.93;;;6.30;;
16766;SDS011;8501;49.926;8.404;2024-02-14T00:39:54;11.23;;;6.40;;
16766;SDS011;8501;49.926;8.404;2024-02-14T00:42:21;10.67;;;7.23;;
16766;SDS011;8501;49.926;8.404;2024-02-14T00:44:47;8.77;;;6.43;;
16766;SDS011;8501;49.926;8.404;2024-02-14T00:47:12;13.43;;;6.83;;
16766;SDS011;8501;49.926;8.404;2024-02-14T00:49:38;9.40;;;6.73;;
16766;SDS011;8501;49.926;8.404;2024-02-14T00:52:04;9.13;;;6.80;;
16766;SDS011;8501;49.926;8.404;2024-02-14T00:54:30;9.17;;;6.70;;
16766;SDS011;8501;49.926;8.404;2024-02-14T00:56:56;10.70;;;7.10;;
16766;SDS011;8501;49.926;8.404;2024-02-14T00:59:21;12.33;;;7.40;;
16766;SDS011;8501;49.926;8.404;2024-02-14T01:01:47;11.70;;;7.03;;
16766;SDS011;8501;49.926;8.404;2024-02-14T01:04:12;11.30;;;6.67;;
16766;SDS011;8501;49.926;8.404;2024-02-14T01:06:38;11.73;;;7.30;;
16766;SDS011;8501;49.926;8.404;2024-02-14T01:09:03;10.47;;;7.60;;
16766;SDS011;8501;49.926;8.404;2024-02-14T01:11:29;10.37;;;7.43;;
16766;SDS011;8501;49.926;8.404;2024-02-14T01:13:54;11.87;;;7.30;;
16766;SDS011;8501;49.926;8.404;2024-02-14T01:16:20;11.50;;;7.63;;
16766;SDS011;8501;49.926;8.404;2024-02-14T01:18:46;11.17;;;7.70;;
16766;SDS011;8501;49.926;8.404;2024-02-14T01:21:11;12.40;;;7.80;;
16766;SDS011;8501;49.926;8.404;2024-02-14T01:23:37;10.40;;;8.03;;
16766;SDS011;8501;49.926;8.404;2024-02-14T01:26:03;11.97;;;7.67;;
16766;SDS011;8501;49.926;8.404;2024-02-14T01:28:28;10.83;;;7.10;;
16766;SDS011;8501;49.926;8.404;2024-02-14T01:30:54;10.57;;;7.50;;
16766;SDS011;8501;49.926;8.404;2024-02-14T01:33:21;10.60;;;7.00;;
16766;SDS011;8501;49.926;8.404;2024-02-14T01:35:47;14.07;;;7.30;;
16766;SDS011;8501;49.926;8.404;2024-02-14T01:38:13;11.20;;;7.33;;
16766;SDS011;8501;49.926;8.404;2024-02-14T01:40:42;10.50;;;6.90;;
16766;SDS011;8501;49.926;8.404;2024-02-14T01:43:09;10.67;;;7.03;;
16766;SDS011;8501;49.926;8.404;2024-02-14T01:45:35;11.83;;;6.83;;
16766;SDS011;8501;49.926;8.404;2024-02-14T01:48:02;13.23;;;7.67;;
16766;SDS011;8501;49.926;8.404;2024-02-14T01:50:28;12.77;;;7.40;;
16766;SDS011;8501;49.926;8.404;2024-02-14T01:52:55;11.90;;;7.50;;
16766;SDS011;8501;49.926;8.404;2024-02-14T01:55:24;13.10;;;7.40;;
16766;SDS011;8501;49.926;8.404;2024-02-14T01:57:51;11.07;;;7.17;;
16766;SDS011;8501;49.926;8.404;2024-02-14T02:00:18;11.00;;;7.13;;
16766;SDS011;8501;49.926;8.404;2024-02-14T02:02:44;10.47;;;7.50;;
16766;SDS011;8501;49.926;8.404;2024-02-14T02:05:11;12.17;;;7.50;;
16766;SDS011;8501;49.926;8.404;2024-02-14T02:07:38;11.27;;;7.47;;
16766;SDS011;8501;49.926;8.404;2024-02-14T02:10:07;12.13;;;7.60;;
16766;SDS011;8501;49.926;8.404;2024-02-14T02:12:36;13.97;;;8.10;;
16766;SDS011;8501;49.926;8.404;2024-02-14T02:15:04;11.73;;;8.00;;
16766;SDS011;8501;49.926;8.404;2024-02-14T02:17:37;10.93;;;7.60;;
16766;SDS011;8501;49.926;8.404;2024-02-14T02:20:04;11.03;;;7.73;;
16766;SDS011;8501;49.926;8.404;2024-02-14T02:22:32;11.97;;;8.20;;
16766;SDS011;8501;49.926;8.404;2024-02-14T02:25:00;11.73;;;7.67;;
16766;SDS011;8501;49.926;8.404;2024-02-14T02:27:26;13.53;;;7.67;;
16766;SDS011;8501;49.926;8.404;2024-02-14T02:29:52;12.50;;;7.47;;
16766;SDS011;8501;49.926;8.404;2024-02-14T02:32:18;11.50;;;7.73;;
16766;SDS011;8501;49.926;8.404;2024-02-14T02:34:43;13.70;;;7.63;;
16766;SDS011;8501;49.926;8.404;2024-02-14T02:37:10;11.77;;;7.77;;
16766;SDS011;8501;49.926;8.404;2024-02-14T02:39:36;13.30;;;8.40;;
16766;SDS011;8501;49.926;8.404;2024-02-14T02:42:05;13.20;;;7.87;;
16766;SDS011;8501;49.926;8.404;2024-02-14T02:44:31;13.40;;;8.63;;
16766;SDS011;8501;49.926;8.404;2024-02-14T02:46:56;13.23;;;8.70;;
16766;SDS011;8501;49.926;8.404;2024-02-14T02:49:22;18.70;;;8.67;;
16766;SDS011;8501;49.926;8.404;2024-02-14T02:51:47;12.57;;;8.50;;
16766;SDS011;8501;49.926;8.404;2024-02-14T02:54:13;13.80;;;8.50;;
16766;SDS011;8501;49.926;8.404;2024-02-14T02:56:39;13.17;;;8.13;;
16766;SDS011;8501;49.926;8.404;2024-02-14T02:59:06;13.07;;;8.50;;
16766;SDS011;8501;49.926;8.404;2024-02-14T03:01:36;11.23;;;7.40;;
16766;SDS011;8501;49.926;8.404;2024-02-14T03:04:02;13.73;;;8.27;;
16766;SDS011;8501;49.926;8.404;2024-02-14T03:06:27;13.23;;;7.80;;
16766;SDS011;8501;49.926;8.404;2024-02-14T03:08:53;12.87;;;7.73;;
16766;SDS011;8501;49.926;8.404;2024-02-14T03:11:21;13.70;;;8.47;;
16766;SDS011;8501;49.926;8.404;2024-02-14T03:13:47;12.70;;;7.97;;
16766;SDS011;8501;49.926;8.404;2024-02-14T03:16:13;11.73;;;7.73;;
16766;SDS011;8501;49.926;8.404;2024-02-14T03:18:40;11.80;;;7.87;;
16766;SDS011;8501;49.926;8.404;2024-02-14T03:21:06;11.97;;;7.97;;
16766;SDS011;8501;49.926;8.404;2024-02-14T03:23:32;11.37;;;7.77;;
16766;SDS011;8501;49.926;8.404;2024-02-14T03:25:57;12.53;;;7.63;;
16766;SDS011;8501;49.926;8.404;2024-02-14T03:28:23;12.00;;;7.90;;
16766;SDS011;8501;49.926;8.404;2024-02-14T03:30:49;11.53;;;7.53;;
16766;SDS011;8501;49.926;8.404;2024-02-14T03:33:15;13.53;;;7.67;;
16766;SDS011;8501;49.926;8.404;2024-02-14T03:35:41;12.90;;;7.47;;
16766;SDS011;8501;49.926;8.404;2024-02-14T03:38:07;12.67;;;7.40;;
16766;SDS011;8501;49.926;8.404;2024-02-14T03:40:35;14.40;;;7.87;;
16766;SDS011;8501;49.926;8.404;2024-02-14T03:43:03;12.00;;;7.70;;
16766;SDS011;8501;49.926;8.404;2024-02-14T03:45:29;10.13;;;7.77;;
16766;SDS011;8501;49.926;8.404;2024-02-14T03:47:55;12.47;;;7.37;;
16766;SDS011;8501;49.926;8.404;2024-02-14T03:50:21;13.77;;;7.20;;
16766;SDS011;8501;49.926;8.404;2024-02-14T03:52:47;13.07;;;7.80;;
16766;SDS011;8501;49.926;8.404;2024-02-14T03:55:13;13.57;;;7.53;;
16766;SDS011;8501;49.926;8.404;2024-02-14T03:57:41;10.93;;;7.20;;
16766;SDS011;8501;49.926;8.404;2024-02-14T04:00:10;11.57;;;7.23;;
16766;SDS011;8501;49.926;8.404;2024-02-14T04:02:37;12.03;;;7.30;;
16766;SDS011;8501;49.926;8.404;2024-02-14T04:05:03;11.47;;;7.60;;
16766;SDS011;8501;49.926;8.404;2024-02-14T04:07:29;11.77;;;7.10;;
16766;SDS011;8501;49.926;8.404;2024-02-14T04:09:56;12.23;;;7.70;;
16766;SDS011;8501;49.926;8.404;2024-02-14T04:12:22;10.20;;;7.03;;
16766;SDS011;8501;49.926;8.404;2024-02-14T04:14:48;10.00;;;7.00;;
16766;SDS011;8501;49.926;8.404;2024-02-14T04:17:13;10.43;;;7.00;;
16766;SDS011;8501;49.926;8.404;2024-02-14T04:19:39;10.03;;;7.17;;
16766;SDS011;8501;49.926;8.404;2024-02-14T04:22:05;10.90;;;6.73;;
16766;SDS011;8501;49.926;8.404;2024-02-14T04:24:32;13.27;;;7.17;;
16766;SDS011;8501;49.926;8.404;2024-02-14T04:26:59;11.33;;;7.30;;
16766;SDS011;8501;49.926;8.404;2024-02-14T04:29:27;10.77;;;7.30;;
16766;SDS011;8501;49.926;8.404;2024-02-14T04:31:55;15.30;;;8.20;;
16766;SDS011;8501;49.926;8.404;2024-02-14T04:34:21;11.20;;;7.57;;
16766;SDS011;8501;49.926;8.404;2024-02-14T04:36:47;12.37;;;8.23;;
16766;SDS011;8501;49.926;8.404;2024-02-14T04:39:12;10.03;;;7.47;;
16766;SDS011;8501;49.926;8.404;2024-02-14T04:41:38;10.30;;;7.63;;
16766;SDS011;8501;49.926;8.404;2024-02-14T04:44:04;13.07;;;8.33;;
16766;SDS011;8501;49.926;8.404;2024-02-14T04:46:33;11.90;;;7.80;;
16766;SDS011;8501;49.926;8.404;2024-02-14T04:49:00;11.83;;;7.67;;
16766;SDS011;8501;49.926;8.404;2024-02-14T04:51:28;12.90;;;7.47;;
16766;SDS011;8501;49.926;8.404;2024-02-14T04:53:56;14.47;;;8.03;;
16766;SDS011;8501;49.926;8.404;2024-02-14T04:56:28;13.63;;;8.13;;
16766;SDS011;8501;49.926;8.404;2024-02-14T04:58:54;12.40;;;7.73;;
16766;SDS011;8501;49.926;8.404;2024-02-14T05:01:22;12.27;;;7.60;;
16766;SDS011;8501;49.926;8.404;2024-02-14T05:03:48;12.67;;;7.97;;
16766;SDS011;8501;49.926;8.404;2024-02-14T05:06:14;12.43;;;8.07;;
16766;SDS011;8501;49.926;8.404;2024-02-14T05:08:40;11.13;;;7.73;;
16766;SDS011;8501;49.926;8.404;2024-02-14T05:11:06;14.53;;;8.00;;
16766;SDS011;8501;49.926;8.404;2024-02-14T05:13:31;14.00;;;8.20;;
16766;SDS011;8501;49.926;8.404;2024-02-14T05:15:57;13.63;;;8.20;;
16766;SDS011;8501;49.926;8.404;2024-02-14T05:18:23;13.83;;;8.10;;
16766;SDS011;8501;49.926;8.404;2024-02-14T05:20:48;11.37;;;7.63;;
16766;SDS011;8501;49.926;8.404;2024-02-14T05:23:14;10.63;;;7.40;;
16766;SDS011;8501;49.926;8.404;2024-02-14T05:25:42;11.40;;;7.50;;
16766;SDS011;8501;49.926;8.404;2024-02-14T05:28:08;12.63;;;7.83;;
16766;SDS011;8501;49.926;8.404;2024-02-14T05:30:38;10.63;;;7.57;;
16766;SDS011;8501;49.926;8.404;2024-02-14T05:33:04;12.00;;;7.87;;
16766;SDS011;8501;49.926;8.404;2024-02-14T05:35:30;12.43;;;7.77;;
16766;SDS011;8501;49.926;8.404;2024-02-14T05:37:55;12.33;;;7.13;;
16766;SDS011;8501;49.926;8.404;2024-02-14T05:40:22;11.97;;;7.47;;
16766;SDS011;8501;49.926;8.404;2024-02-14T05:42:49;12.00;;;7.03;;
16766;SDS011;8501;49.926;8.404;2024-02-14T05:45:14;14.53;;;7.50;;
16766;SDS011;8501;49.926;8.404;2024-02-14T05:47:40;10.73;;;7.07;;
16766;SDS011;8501;49.926;8.404;2024-02-14T05:50:06;12.00;;;7.20;;
16766;SDS011;8501;49.926;8.404;2024-02-14T05:52:33;11.20;;;7.20;;
16766;SDS011;8501;49.926;8.404;2024-02-14T05:54:59;10.70;;;6.80;;
16766;SDS011;8501;49.926;8.404;2024-02-14T05:57:25;11.70;;;6.90;;
16766;SDS011;8501;49.926;8.404;2024-02-14T05:59:51;9.20;;;6.13;;
16766;SDS011;8501;49.926;8.404;2024-02-14T06:02:17;10.77;;;6.90;;
16766;SDS011;8501;49.926;8.404;2024-02-14T06:04:43;11.13;;;7.03;;
16766;SDS011;8501;49.926;8.404;2024-02-14T06:07:09;11.03;;;7.30;;
16766;SDS011;8501;49.926;8.404;2024-02-14T06:09:36;12.67;;;6.80;;
16766;SDS011;8501;49.926;8.404;2024-02-14T06:12:02;11.20;;;7.27;;
16766;SDS011;8501;49.926;8.404;2024-02-14T06:14:28;11.80;;;7.47;;
16766;SDS011;8501;49.926;8.404;2024-02-14T06:16:56;12.37;;;7.43;;
16766;SDS011;8501;49.926;8.404;2024-02-14T06:19:22;12.57;;;7.40;;
16766;SDS011;8501;49.926;8.404;2024-02-14T06:21:48;10.70;;;7.33;;
16766;SDS011;8501;49.926;8.404;2024-02-14T06:24:13;11.00;;;6.97;;
16766;SDS011;8501;49.926;8.404;2024-02-14T06:26:39;13.43;;;7.50;;
16766;SDS011;8501;49.926;8.404;2024-02-14T06:29:05;10.70;;;6.63;;
16766;SDS011;8501;49.926;8.404;2024-02-14T06:31:31;11.53;;;6.77;;
16766;SDS011;8501;49.926;8.404;2024-02-14T06:33:57;12.47;;;7.17;;
16766;SDS011;8501;49.926;8.404;2024-02-14T06:36:22;9.60;;;6.00;;
16766;SDS011;8501;49.926;8.404;2024-02-14T06:38:48;12.73;;;6.40;;
16766;SDS011;8501;49.926;8.404;2024-02-14T06:41:16;12.13;;;5.53;;
16766;SDS011;8501;49.926;8.404;2024-02-14T06:43:41;10.43;;;6.07;;
16766;SDS011;8501;49.926;8.404;2024-02-14T06:46:07;11.93;;;6.50;;
16766;SDS011;8501;49.926;8.404;2024-02-14T06:48:33;9.80;;;5.60;;
16766;SDS011;8501;49.926;8.404;2024-02-14T06:50:59;10.00;;;5.70;;
16766;SDS011;8501;49.926;8.404;2024-02-14T06:53:24;8.93;;;6.10;;
16766;SDS011;8501;49.926;8.404;2024-02-14T06:55:50;11.17;;;5.90;;
16766;SDS011;8501;49.926;8.404;2024-02-14T06:58:16;9.03;;;5.70;;
16766;SDS011;8501;49.926;8.404;2024-02-14T07:00:41;10.83;;;5.90;;
16766;SDS011;8501;49.926;8.404;2024-02-14T07:03:07;12.73;;;5.43;;
16766;SDS011;8501;49.926;8.404;2024-02-14T07:05:32;10.90;;;5.67;;
16766;SDS011;8501;49.926;8.404;2024-02-14T07:07:58;9.40;;;5.40;;
16766;SDS011;8501;49.926;8.404;2024-02-14T07:10:24;12.93;;;5.70;;
16766;SDS011;8501;49.926;8.404;2024-02-14T07:12:50;9.17;;;5.80;;
16766;SDS011;8501;49.926;8.404;2024-02-14T07:15:16;7.77;;;5.07;;
16766;SDS011;8501;49.926;8.404;2024-02-14T07:17:42;9.37;;;5.30;;
16766;SDS011;8501;49.926;8.404;2024-02-14T07:20:08;7.23;;;4.73;;
16766;SDS011;8501;49.926;8.404;2024-02-14T07:22:34;8.03;;;4.90;;
16766;SDS011;8501;49.926;8.404;2024-02-14T07:25:00;7.43;;;4.70;;
16766;SDS011;8501;49.926;8.404;2024-02-14T07:27:26;9.60;;;5.10;;
16766;SDS011;8501;49.926;8.404;2024-02-14T07:29:52;10.10;;;5.33;;
16766;SDS011;8501;49.926;8.404;2024-02-14T07:32:17;8.60;;;4.77;;
16766;SDS011;8501;49.926;8.404;2024-02-14T07:34:43;9.43;;;4.83;;
16766;SDS011;8501;49.926;8.404;2024-02-14T07:37:09;7.70;;;4.60;;
16766;SDS011;8501;49.926;8.404;2024-02-14T07:39:34;7.07;;;4.93;;
16766;SDS011;8501;49.926;8.404;2024-02-14T07:42:00;8.03;;;5.20;;
16766;SDS011;8501;49.926;8.404;2024-02-14T07:44:27;9.17;;;5.00;;
16766;SDS011;8501;49.926;8.404;2024-02-14T07:46:52;9.83;;;3.90;;
16766;SDS011;8501;49.926;8.404;2024-02-14T07:49:18;6.30;;;4.20;;
16766;SDS011;8501;49.926;8.404;2024-02-14T07:51:44;8.07;;;4.33;;
16766;SDS011;8501;49.926;8.404;2024-02-14T07:54:10;7.30;;;4.30;;
16766;SDS011;8501;49.926;8.404;2024-02-14T07:56:36;8.23;;;4.57;;
16766;SDS011;8501;49.926;8.404;2024-02-14T07:59:01;10.70;;;4.23;;
16766;SDS011;8501;49.926;8.404;2024-02-14T08:01:27;8.87;;;4.77;;
16766;SDS011;8501;49.926;8.404;2024-02-14T08:03:53;7.77;;;4.43;;
16766;SDS011;8501;49.926;8.404;2024-02-14T08:06:20;7.23;;;4.80;;
16766;SDS011;8501;49.926;8.404;2024-02-14T08:08:46;8.87;;;5.17;;
16766;SDS011;8501;49.926;8.404;2024-02-14T08:11:13;7.50;;;4.50;;
16766;SDS011;8501;49.926;8.404;2024-02-14T08:13:39;9.00;;;4.70;;
16766;SDS011;8501;49.926;8.404;2024-02-14T08:16:06;8.13;;;4.63;;
16766;SDS011;8501;49.926;8.404;2024-02-14T08:18:32;8.10;;;5.00;;
16766;SDS011;8501;49.926;8.404;2024-02-14T08:20:57;8.07;;;4.33;;
16766;SDS011;8501;49.926;8.404;2024-02-14T08:23:23;6.33;;;4.83;;
16766;SDS011;8501;49.926;8.404;2024-02-14T08:25:49;7.97;;;4.43;;
16766;SDS011;8501;49.926;8.404;2024-02-14T08:28:15;7.60;;;4.50;;
16766;SDS011;8501;49.926;8.404;2024-02-14T08:30:43;7.13;;;4.40;;
16766;SDS011;8501;49.926;8.404;2024-02-14T08:33:09;8.97;;;4.10;;
16766;SDS011;8501;49.926;8.404;2024-02-14T08:35:36;8.00;;;4.13;;
16766;SDS011;8501;49.926;8.404;2024-02-14T08:38:01;8.87;;;4.30;;
16766;SDS011;8501;49.926;8.404;2024-02-14T08:40:27;6.57;;;4.13;;
16766;SDS011;8501;49.926;8.404;2024-02-14T08:42:53;8.70;;;4.33;;
16766;SDS011;8501;49.926;8.404;2024-02-14T08:45:18;6.27;;;4.17;;
16766;SDS011;8501;49.926;8.404;2024-02-14T08:47:44;7.63;;;3.77;;
16766;SDS011;8501;49.926;8.404;2024-02-14T08:50:10;8.10;;;4.50;;
16766;SDS011;8501;49.926;8.404;2024-02-14T08:52:35;5.87;;;3.80;;
16766;SDS011;8501;49.926;8.404;2024-02-14T08:55:03;6.13;;;3.70;;
16766;SDS011;8501;49.926;8.404;2024-02-14T08:57:29;7.53;;;4.40;;
16766;SDS011;8501;49.926;8.404;2024-02-14T08:59:56;6.47;;;3.93;;
16766;SDS011;8501;49.926;8.404;2024-02-14T09:02:22;6.70;;;3.93;;
16766;SDS011;8501;49.926;8.404;2024-02-14T09:04:47;8.87;;;4.20;;
16766;SDS011;8501;49.926;8.404;2024-02-14T09:07:13;9.50;;;4.07;;
16766;SDS011;8501;49.926;8.404;2024-02-14T09:09:39;6.27;;;4.37;;
16766;SDS011;8501;49.926;8.404;2024-02-14T09:12:05;7.67;;;3.97;;
16766;SDS011;8501;49.926;8.404;2024-02-14T09:14:31;6.43;;;3.60;;
16766;SDS011;8501;49.926;8.404;2024-02-14T09:16:57;8.07;;;3.90;;
16766;SDS011;8501;49.926;8.404;2024-02-14T09:19:23;7.07;;;3.80;;
16766;SDS011;8501;49.926;8.404;2024-02-14T09:21:50;8.17;;;4.20;;
16766;SDS011;8501;49.926;8.404;2024-02-14T09:24:15;7.67;;;4.10;;
16766;SDS011;8501;49.926;8.404;2024-02-14T09:26:41;6.17;;;3.60;;
16766;SDS011;8501;49.926;8.404;2024-02-14T09:29:08;6.73;;;3.60;;
16766;SDS011;8501;49.926;8.404;2024-02-14T09:31:35;7.67;;;3.93;;
16766;SDS011;8501;49.926;8.404;2024-02-14T09:34:01;6.30;;;4.10;;
16766;SDS011;8501;49.926;8.404;2024-02-14T09:36:27;4.70;;;3.40;;
16766;SDS011;8501;49.926;8.404;2024-02-14T09:38:53;6.33;;;3.67;;
16766;SDS011;8501;49.926;8.404;2024-02-14T09:43:55;6.17;;;4.20;;
16766;SDS011;8501;49.926;8.404;2024-02-14T09:46:22;9.03;;;4.27;;
16766;SDS011;8501;49.926;8.404;2024-02-14T09:48:51;6.00;;;4.00;;
16766;SDS011;8501;49.926;8.404;2024-02-14T09:51:18;7.80;;;4.30;;
16766;SDS011;8501;49.926;8.404;2024-02-14T09:53:44;6.70;;;4.33;;
16766;SDS011;8501;49.926;8.404;2024-02-14T09:56:11;7.23;;;4.17;;
16766;SDS011;8501;49.926;8.404;2024-02-14T09:58:38;7.50;;;4.10;;
16766;SDS011;8501;49.926;8.404;2024-02-14T10:01:06;7.37;;;4.33;;
16766;SDS011;8501;49.926;8.404;2024-02-14T10:03:32;6.40;;;4.30;;
16766;SDS011;8501;49.926;8.404;2024-02-14T10:05:59;7.97;;;4.27;;
16766;SDS011;8501;49.926;8.404;2024-02-14T10:08:46;6.57;;;4.37;;
16766;SDS011;8501;49.926;8.404;2024-02-14T10:11:55;8.00;;;4.50;;
16766;SDS011;8501;49.926;8.404;2024-02-14T10:14:23;7.30;;;4.13;;
16766;SDS011;8501;49.926;8.404;2024-02-14T10:16:49;7.37;;;4.13;;
16766;SDS011;8501;49.926;8.404;2024-02-14T10:19:15;7.33;;;4.40;;
16766;SDS011;8501;49.926;8.404;2024-02-14T10:21:43;12.27;;;6.47;;
16766;SDS011;8501;49.926;8.404;2024-02-14T10:24:21;9.53;;;5.17;;
16766;SDS011;8501;49.926;8.404;2024-02-14T10:26:46;9.57;;;5.20;;
16766;SDS011;8501;49.926;8.404;2024-02-14T10:29:13;8.93;;;5.10;;
16766;SDS011;8501;49.926;8.404;2024-02-14T10:31:40;7.53;;;4.10;;
16766;SDS011;8501;49.926;8.404;2024-02-14T10:34:05;8.17;;;4.27;;
16766;SDS011;8501;49.926;8.404;2024-02-14T10:36:34;8.40;;;4.30;;
16766;SDS011;8501;49.926;8.404;2024-02-14T10:39:01;5.73;;;3.77;;
16766;SDS011;8501;49.926;8.404;2024-02-14T10:41:29;7.17;;;3.90;;
16766;SDS011;8501;49.926;8.404;2024-02-14T10:44:00;7.53;;;4.00;;
16766;SDS011;8501;49.926;8.404;2024-02-14T10:46:33;5.30;;;3.70;;
16766;SDS011;8501;49.926;8.404;2024-02-14T10:49:02;11.87;;;4.33;;
16766;SDS011;8501;49.926;8.404;2024-02-14T10:51:39;9.10;;;3.80;;
16766;SDS011;8501;49.926;8.404;2024-02-14T10:54:09;5.57;;;3.77;;
16766;SDS011;8501;49.926;8.404;2024-02-14T10:56:38;5.93;;;3.63;;
16766;SDS011;8501;49.926;8.404;2024-02-14T10:59:05;5.07;;;3.73;;
16766;SDS011;8501;49.926;8.404;2024-02-14T11:01:33;5.17;;;3.40;;
16766;SDS011;8501;49.926;8.404;2024-02-14T11:04:00;3.70;;;3.00;;
16766;SDS011;8501;49.926;8.404;2024-02-14T11:06:27;5.97;;;3.47;;
16766;SDS011;8501;49.926;8.404;2024-02-14T11:09:03;4.40;;;3.50;;
16766;SDS011;8501;49.926;8.404;2024-02-14T11:11:35;6.27;;;3.00;;
16766;SDS011;8501;49.926;8.404;2024-02-14T11:14:02;5.87;;;3.60;;
16766;SDS011;8501;49.926;8.404;2024-02-14T11:16:28;5.50;;;3.50;;
16766;SDS011;8501;49.926;8.404;2024-02-14T11:19:07;6.50;;;3.53;;
16766;SDS011;8501;49.926;8.404;2024-02-14T11:21:40;4.17;;;3.57;;
16766;SDS011;8501;49.926;8.404;2024-02-14T11:24:11;7.60;;;3.70;;
16766;SDS011;8501;49.926;8.404;2024-02-14T11:26:51;6.90;;;3.87;;
16766;SDS011;8501;49.926;8.404;2024-02-14T11:29:20;5.10;;;3.57;;
16766;SDS011;8501;49.926;8.404;2024-02-14T11:31:46;6.63;;;3.90;;
16766;SDS011;8501;49.926;8.404;2024-02-14T11:34:16;6.00;;;3.87;;
16766;SDS011;8501;49.926;8.404;2024-02-14T11:36:42;7.27;;;4.10;;
16766;SDS011;8501;49.926;8.404;2024-02-14T11:39:09;4.77;;;4.00;;
16766;SDS011;8501;49.926;8.404;2024-02-14T11:41:37;5.90;;;3.63;;
16766;SDS011;8501;49.926;8.404;2024-02-14T11:44:03;7.63;;;4.00;;
16766;SDS011;8501;49.926;8.404;2024-02-14T11:46:30;6.73;;;3.93;;
16766;SDS011;8501;49.926;8.404;2024-02-14T11:49:01;6.27;;;3.70;;
16766;SDS011;8501;49.926;8.404;2024-02-14T11:51:28;7.00;;;3.80;;
16766;SDS011;8501;49.926;8.404;2024-02-14T11:53:55;6.00;;;3.80;;
16766;SDS011;8501;49.926;8.404;2024-02-14T11:56:22;8.93;;;4.00;;
16766;SDS011;8501;49.926;8.404;2024-02-14T11:58:48;5.43;;;3.90;;
16766;SDS011;8501;49.926;8.404;2024-02-14T12:01:19;4.87;;;3.67;;
16766;SDS011;8501;49.926;8.404;2024-02-14T12:03:44;5.23;;;3.30;;
16766;SDS011;8501;49.926;8.404;2024-02-14T12:06:10;6.07;;;3.83;;
16766;SDS011;8501;49.926;8.404;2024-02-14T12:08:36;5.17;;;3.40;;
16766;SDS011;8501;49.926;8.404;2024-02-14T12:11:03;7.03;;;3.80;;
16766;SDS011;8501;49.926;8.404;2024-02-14T12:13:30;6.13;;;3.80;;
16766;SDS011;8501;49.926;8.404;2024-02-14T12:15:57;5.17;;;3.60;;
16766;SDS011;8501;49.926;8.404;2024-02-14T12:18:23;6.87;;;3.63;;
16766;SDS011;8501;49.926;8.404;2024-02-14T12:20:48;5.27;;;3.70;;
16766;SDS011;8501;49.926;8.404;2024-02-14T12:23:18;4.83;;;3.60;;
16766;SDS011;8501;49.926;8.404;2024-02-14T12:29:11;6.57;;;3.60;;
16766;SDS011;8501;49.926;8.404;2024-02-14T12:31:40;4.90;;;3.40;;
16766;SDS011;8501;49.926;8.404;2024-02-14T12:34:07;6.47;;;3.90;;
16766;SDS011;8501;49.926;8.404;2024-02-14T12:36:37;5.03;;;3.63;;
16766;SDS011;8501;49.926;8.404;2024-02-14T12:39:03;6.80;;;3.80;;
16766;SDS011;8501;49.926;8.404;2024-02-14T12:41:30;10.10;;;5.50;;
16766;SDS011;8501;49.926;8.404;2024-02-14T12:43:58;6.93;;;3.90;;
16766;SDS011;8501;49.926;8.404;2024-02-14T12:46:25;5.87;;;4.00;;
16766;SDS011;8501;49.926;8.404;2024-02-14T12:48:51;9.43;;;6.53;;
16766;SDS011;8501;49.926;8.404;2024-02-14T12:51:16;5.33;;;4.13;;
16766;SDS011;8501;49.926;8.404;2024-02-14T12:53:43;5.27;;;3.43;;
16766;SDS011;8501;49.926;8.404;2024-02-14T12:56:08;5.50;;;3.60;;
16766;SDS011;8501;49.926;8.404;2024-02-14T12:58:34;4.80;;;3.60;;
16766;SDS011;8501;49.926;8.404;2024-02-14T13:01:00;5.77;;;3.90;;
16766;SDS011;8501;49.926;8.404;2024-02-14T13:03:26;5.73;;;3.67;;
16766;SDS011;8501;49.926;8.404;2024-02-14T13:05:53;6.40;;;4.10;;
16766;SDS011;8501;49.926;8.404;2024-02-14T13:08:20;6.07;;;4.10;;
16766;SDS011;8501;49.926;8.404;2024-02-14T13:10:46;8.07;;;4.47;;
16766;SDS011;8501;49.926;8.404;2024-02-14T13:13:12;5.30;;;4.30;;
16766;SDS011;8501;49.926;8.404;2024-02-14T13:15:39;7.77;;;4.37;;
16766;SDS011;8501;49.926;8.404;2024-02-14T13:18:05;5.40;;;4.20;;
16766;SDS011;8501;49.926;8.404;2024-02-14T13:20:31;7.70;;;4.70;;
16766;SDS011;8501;49.926;8.404;2024-02-14T13:22:56;8.67;;;4.90;;
16766;SDS011;8501;49.926;8.404;2024-02-14T13:25:22;6.53;;;4.97;;
16766;SDS011;8501;49.926;8.404;2024-02-14T13:27:48;7.87;;;5.57;;
16766;SDS011;8501;49.926;8.404;2024-02-14T13:30:14;6.10;;;5.17;;
16766;SDS011;8501;49.926;8.404;2024-02-14T13:32:39;7.90;;;5.20;;
16766;SDS011;8501;49.926;8.404;2024-02-14T13:35:05;8.30;;;5.37;;
16766;SDS011;8501;49.926;8.404;2024-02-14T13:37:31;7.77;;;5.63;;
16766;SDS011;8501;49.926;8.404;2024-02-14T13:39:58;7.37;;;5.30;;
16766;SDS011;8501;49.926;8.404;2024-02-14T13:42:23;7.23;;;5.37;;
16766;SDS011;8501;49.926;8.404;2024-02-14T13:44:49;42.40;;;26.80;;
16766;SDS011;8501;49.926;8.404;2024-02-14T13:47:18;29.30;;;19.20;;
16766;SDS011;8501;49.926;8.404;2024-02-14T13:49:45;20.27;;;10.83;;
16766;SDS011;8501;49.926;8.404;2024-02-14T13:52:12;18.20;;;9.70;;
16766;SDS011;8501;49.926;8.404;2024-02-14T13:54:40;11.47;;;7.27;;
16766;SDS011;8501;49.926;8.404;2024-02-14T13:57:06;9.57;;;6.93;;
16766;SDS011;8501;49.926;8.404;2024-02-14T13:59:32;9.27;;;6.57;;
16766;SDS011;8501;49.926;8.404;2024-02-14T14:01:57;7.93;;;5.93;;
16766;SDS011;8501;49.926;8.404;2024-02-14T14:04:23;8.10;;;5.87;;
16766;SDS011;8501;49.926;8.404;2024-02-14T14:06:50;8.20;;;6.40;;
16766;SDS011;8501;49.926;8.404;2024-02-14T14:09:16;8.73;;;6.77;;
16766;SDS011;8501;49.926;8.404;2024-02-14T14:11:42;12.03;;;8.23;;
16766;SDS011;8501;49.926;8.404;2024-02-14T14:14:07;11.00;;;6.60;;
16766;SDS011;8501;49.926;8.404;2024-02-14T14:16:33;9.80;;;6.57;;
16766;SDS011;8501;49.926;8.404;2024-02-14T14:19:00;8.07;;;6.30;;
16766;SDS011;8501;49.926;8.404;2024-02-14T14:21:26;8.57;;;6.27;;
16766;SDS011;8501;49.926;8.404;2024-02-14T14:23:51;7.27;;;5.73;;
16766;SDS011;8501;49.926;8.404;2024-02-14T14:26:17;8.50;;;6.03;;
16766;SDS011;8501;49.926;8.404;2024-02-14T14:28:43;8.87;;;6.87;;
16766;SDS011;8501;49.926;8.404;2024-02-14T14:31:09;10.07;;;7.10;;
16766;SDS011;8501;49.926;8.404;2024-02-14T14:33:36;9.00;;;6.13;;
16766;SDS011;8501;49.926;8.404;2024-02-14T14:36:03;8.60;;;6.13;;
16766;SDS011;8501;49.926;8.404;2024-02-14T14:38:29;9.00;;;6.50;;
16766;SDS011;8501;49.926;8.404;2024-02-14T14:40:55;8.67;;;6.20;;
16766;SDS011;8501;49.926;8.404;2024-02-14T14:43:21;8.20;;;6.43;;
16766;SDS011;8501;49.926;8.404;2024-02-14T14:45:47;10.93;;;6.60;;
16766;SDS011;8501;49.926;8.404;2024-02-14T14:48:14;10.37;;;7.20;;
16766;SDS011;8501;49.926;8.404;2024-02-14T14:50:40;8.43;;;6.40;;
16766;SDS011;8501;49.926;8.404;2024-02-14T14:53:06;10.40;;;6.57;;
16766;SDS011;8501;49.926;8.404;2024-02-14T14:58:17;9.10;;;6.10;;
16766;SDS011;8501;49.926;8.404;2024-02-14T15:00:43;10.13;;;6.63;;